Time;durP1;ratioP1;P1;durP2;ratioP2;P2;SDS_P1;SDS_P2;PMS_P1;PMS_P2;Temp;Humidity;BMP_temperature;BMP_pressure;BME280_temperature;BME280_humidity;BME280_pressure;Samples;Min_cycle;Max_cycle;Signal;HPM_P1;HPM_P2
2022/07/12 00:00:37;;;;;;;;;;;;;;;12.71;90.95;100705.88;1452646;87;20337;-88
2022/07/12 00:03:03;;;;;;;;;;;;;;;12.77;90.13;100699.94;1477169;87;20306;-88
2022/07/12 00:05:29;;;;;;;;;;;;;;;12.84;90.10;100693.04;1476046;88;20345;-88
2022/07/12 00:07:55;;;;;;;;;;;;;;;12.91;89.12;100698.05;1452401;89;20401;-89
2022/07/12 00:10:23;;;;;;;;;;;;;;;12.96;89.06;100697.09;1471666;87;21381;-90
2022/07/12 00:12:49;;;;;;;;;;;;;;;12.98;89.04;100690.31;1486609;86;21101;-90
2022/07/12 00:15:21;;;;;;;;;;;;;;;13.03;89.07;100696.82;1480223;87;20308;-90
2022/07/12 00:17:47;;;;;;;;;;;;;;;13.08;88.75;100691.84;1476183;86;20807;-91
2022/07/12 00:20:13;;;;;;;;;;;;;;;13.08;89.82;100694.50;1466769;86;20367;-91
2022/07/12 00:22:40;;;;;;;;;;;;;;;13.06;89.99;100699.16;1458607;88;20293;-90
2022/07/12 00:25:07;;;;;;;;;;;;;;;13.01;90.09;100701.45;1484944;87;20337;-90
2022/07/12 00:27:33;;;;;;;;;;;;;;;12.97;90.58;100705.89;1488938;86;21254;-90
2022/07/12 00:30:07;;;;;;;;;;;;;;;12.94;90.55;100704.38;1470322;89;20290;-90
2022/07/12 00:32:42;;;;;;;;;;;;;;;12.90;89.69;100705.69;1545407;86;20336;-89
2022/07/12 00:35:18;;;;;;;;;;;;;;;12.83;90.70;100705.95;1475036;86;20926;-90
2022/07/12 00:37:44;;;;;;;;;;;;;;;12.85;92.02;100702.66;1487386;86;20506;-89
2022/07/12 00:40:13;;;;;;;;;;;;;;;12.88;91.74;100704.50;1462341;87;20410;-90
2022/07/12 00:42:42;;;;;;;;;;;;;;;12.90;91.59;100708.34;1476655;87;20810;-89
2022/07/12 00:45:09;;;;;;;;;;;;;;;12.92;91.10;100704.19;1468464;87;20405;-89
2022/07/12 00:47:42;;;;;;;;;;;;;;;12.94;91.35;100709.69;1465167;89;20393;-90
2022/07/12 00:50:09;;;;;;;;;;;;;;;12.96;91.15;100706.39;1449455;89;20278;-89
2022/07/12 00:52:37;;;;;;;;;;;;;;;13.01;90.52;100711.25;1442931;89;20394;-89
2022/07/12 00:55:05;;;;;;;;;;;;;;;13.04;90.21;100714.92;1533473;88;20264;-89
2022/07/12 00:57:33;;;;;;;;;;;;;;;13.08;89.64;100712.27;1572233;86;20279;-89
2022/07/12 01:00:00;;;;;;;;;;;;;;;13.10;89.63;100702.33;1570941;86;20230;-89
2022/07/12 01:02:28;;;;;;;;;;;;;;;13.13;89.33;100702.52;1578348;86;20207;-89
2022/07/12 01:04:55;;;;;;;;;;;;;;;13.14;89.16;100702.84;1551085;88;20829;-89
2022/07/12 01:07:24;;;;;;;;;;;;;;;13.15;88.30;100703.17;1577076;86;20246;-90
2022/07/12 01:09:53;;;;;;;;;;;;;;;13.14;87.68;100702.84;1493008;86;20224;-90
2022/07/12 01:12:19;;;;;;;;;;;;;;;13.16;87.99;100700.88;1545376;86;20258;-88
2022/07/12 01:14:45;;;;;;;;;;;;;;;13.17;87.84;100700.69;1550283;87;20286;-89
2022/07/12 01:17:13;;;;;;;;;;;;;;;13.18;87.35;100702.38;1526772;86;20985;-89
2022/07/12 01:19:39;;;;;;;;;;;;;;;13.16;87.88;100699.54;1582323;86;20252;-89
2022/07/12 01:22:09;;;;;;;;;;;;;;;13.11;86.49;100707.97;1576079;86;20236;-89
2022/07/12 01:24:36;;;;;;;;;;;;;;;13.03;85.84;100707.92;1566197;86;20246;-89
2022/07/12 01:27:06;;;;;;;;;;;;;;;12.97;85.67;100710.70;1553745;88;20357;-89
2022/07/12 01:29:33;;;;;;;;;;;;;;;12.93;87.43;100705.88;1481661;89;20269;-89
2022/07/12 01:32:24;;;;;;;;;;;;;;;12.86;87.23;100706.50;1558430;86;20395;-89
2022/07/12 01:34:55;;;;;;;;;;;;;;;12.86;87.87;100708.33;1446197;87;20270;-89
2022/07/12 01:37:22;;;;;;;;;;;;;;;12.86;85.99;100697.70;1571434;86;20259;-87
2022/07/12 01:39:52;;;;;;;;;;;;;;;12.87;86.35;100700.19;1583289;86;20407;-88
2022/07/12 01:42:19;;;;;;;;;;;;;;;12.90;85.57;100697.72;1497245;88;20262;-87
2022/07/12 01:44:45;;;;;;;;;;;;;;;12.93;85.34;100689.44;1541520;88;20246;-88
2022/07/12 01:47:18;;;;;;;;;;;;;;;12.92;85.90;100689.11;1452686;89;20268;-87
2022/07/12 01:49:44;;;;;;;;;;;;;;;12.97;85.92;100686.80;1467579;88;20305;-87
2022/07/12 01:52:11;;;;;;;;;;;;;;;13.02;86.51;100683.17;1465460;88;20298;-88
2022/07/12 01:54:37;;;;;;;;;;;;;;;13.07;86.17;100680.06;1471197;88;20275;-87
2022/07/12 01:57:04;;;;;;;;;;;;;;;13.09;85.99;100690.05;1463490;87;21588;-91
2022/07/12 01:59:31;;;;;;;;;;;;;;;13.06;86.42;100689.86;1422940;90;20246;-87
2022/07/12 02:01:57;;;;;;;;;;;;;;;13.08;86.96;100691.02;1554207;87;20754;-87
2022/07/12 02:04:23;;;;;;;;;;;;;;;13.10;87.25;100687.22;1412336;89;21191;-87
2022/07/12 02:06:50;;;;;;;;;;;;;;;13.13;86.90;100683.41;1403563;87;20246;-89
2022/07/12 02:09:17;;;;;;;;;;;;;;;13.15;86.36;100684.56;1515517;87;20254;-88
2022/07/12 02:11:44;;;;;;;;;;;;;;;13.17;86.26;100681.27;1536760;89;20870;-90
2022/07/12 02:14:12;;;;;;;;;;;;;;;13.17;86.96;100687.91;1547365;89;20366;-90
2022/07/12 02:16:39;;;;;;;;;;;;;;;13.13;87.77;100691.38;1540731;89;20339;-91
2022/07/12 02:19:06;;;;;;;;;;;;;;;13.14;87.57;100692.21;1461351;89;20296;-91
2022/07/12 02:21:31;;;;;;;;;;;;;;;13.13;87.60;100695.88;1462745;89;20386;-91
2022/07/12 02:23:57;;;;;;;;;;;;;;;13.10;87.29;100699.17;1439683;89;20356;-91
2022/07/12 02:26:23;;;;;;;;;;;;;;;13.15;86.46;100700.52;1440906;89;20281;-91
2022/07/12 02:28:50;;;;;;;;;;;;;;;13.14;87.26;100697.02;1463358;89;20326;-91
2022/07/12 02:31:17;;;;;;;;;;;;;;;13.19;86.30;100692.58;1443815;87;20342;-85
2022/07/12 02:33:47;;;;;;;;;;;;;;;13.17;86.66;100694.55;1463242;86;20874;-85
2022/07/12 02:36:18;;;;;;;;;;;;;;;13.15;86.39;100692.07;1476084;87;20926;-88
2022/07/12 02:38:44;;;;;;;;;;;;;;;13.14;86.43;100693.04;1496277;87;20280;-87
2022/07/12 02:41:12;;;;;;;;;;;;;;;13.18;86.06;100694.91;1471036;87;20304;-87
2022/07/12 02:43:40;;;;;;;;;;;;;;;13.17;86.80;100699.87;1455831;87;20365;-88
2022/07/12 02:46:13;;;;;;;;;;;;;;;13.15;86.00;100700.52;1460876;87;20351;-88
2022/07/12 02:48:40;;;;;;;;;;;;;;;13.19;85.63;100704.54;1461959;87;20425;-88
2022/07/12 02:51:07;;;;;;;;;;;;;;;13.25;85.26;100697.26;1490934;87;20912;-88
2022/07/12 02:53:35;;;;;;;;;;;;;;;13.25;86.21;100697.26;1441711;88;20411;-88
2022/07/12 02:56:01;;;;;;;;;;;;;;;13.18;86.45;100702.88;1467992;87;20384;-88
2022/07/12 02:58:27;;;;;;;;;;;;;;;13.14;86.28;100703.67;1491902;86;20291;-88
2022/07/12 03:00:54;;;;;;;;;;;;;;;13.11;85.95;100702.66;1469270;87;20317;-88
2022/07/12 03:03:20;;;;;;;;;;;;;;;13.06;86.60;100701.81;1479071;86;20335;-88
2022/07/12 03:05:47;;;;;;;;;;;;;;;13.05;86.67;100703.29;1493523;86;20274;-89
2022/07/12 03:08:13;;;;;;;;;;;;;;;13.03;86.83;100701.27;1490809;86;21070;-88
2022/07/12 03:10:40;;;;;;;;;;;;;;;13.00;87.59;100702.42;1489543;86;20363;-89
2022/07/12 03:13:06;;;;;;;;;;;;;;;12.98;87.01;100707.08;1472544;86;20445;-88
2022/07/12 03:15:34;;;;;;;;;;;;;;;12.96;87.58;100711.70;1454193;89;20261;-88
2022/07/12 03:18:01;;;;;;;;;;;;;;;12.98;86.30;100703.09;1478406;86;20391;-90
2022/07/12 03:20:28;;;;;;;;;;;;;;;13.02;87.23;100709.75;1484169;86;20344;-88
2022/07/12 03:22:54;;;;;;;;;;;;;;;13.01;87.08;100712.58;1485314;86;20444;-88
2022/07/12 03:25:21;;;;;;;;;;;;;;;13.05;86.52;100712.59;1498393;86;20405;-88
2022/07/12 03:27:48;;;;;;;;;;;;;;;13.08;86.35;100710.95;1452605;86;21154;-87
2022/07/12 03:30:14;;;;;;;;;;;;;;;13.14;85.77;100708.98;1485978;86;20294;-89
2022/07/12 03:32:41;;;;;;;;;;;;;;;13.21;85.81;100706.55;1482715;86;20297;-89
2022/07/12 03:35:09;;;;;;;;;;;;;;;13.31;85.24;100708.61;1458526;88;20916;-89
2022/07/12 03:37:49;;;;;;;;;;;;;;;13.37;85.50;100701.33;1497575;86;20273;-89
2022/07/12 03:40:16;;;;;;;;;;;;;;;13.44;84.69;100705.03;1466342;86;20357;-88
2022/07/12 03:42:43;;;;;;;;;;;;;;;13.48;84.97;100706.88;1485711;86;20287;-88
2022/07/12 03:45:10;;;;;;;;;;;;;;;13.49;84.86;100709.85;1475939;86;20298;-87
2022/07/12 03:47:37;;;;;;;;;;;;;;;13.48;84.61;100713.52;1488807;86;20889;-87
2022/07/12 03:50:05;;;;;;;;;;;;;;;13.49;84.16;100713.38;1479355;86;20319;-88
2022/07/12 03:52:32;;;;;;;;;;;;;;;13.50;83.61;100708.37;1465471;87;20444;-88
2022/07/12 03:54:58;;;;;;;;;;;;;;;13.50;83.38;100717.69;1459966;88;20433;-88
2022/07/12 03:57:26;;;;;;;;;;;;;;;13.50;83.13;100717.69;1469091;87;20831;-88
2022/07/12 03:59:52;;;;;;;;;;;;;;;13.56;83.91;100717.55;1458587;87;20307;-88
2022/07/12 04:02:18;;;;;;;;;;;;;;;13.58;84.38;100708.92;1457877;87;20317;-90
2022/07/12 04:04:44;;;;;;;;;;;;;;;13.64;83.33;100712.27;1488987;87;20385;-89
2022/07/12 04:07:10;;;;;;;;;;;;;;;13.68;83.84;100718.09;1498017;86;20302;-89
2022/07/12 04:09:37;;;;;;;;;;;;;;;13.76;83.04;100715.46;1490635;86;20332;-89
2022/07/12 04:12:03;;;;;;;;;;;;;;;13.83;82.56;100711.14;1492906;86;20295;-88
2022/07/12 04:14:30;;;;;;;;;;;;;;;13.88;81.99;100718.15;1477503;86;20388;-88
2022/07/12 04:16:56;;;;;;;;;;;;;;;13.97;81.14;100721.66;1480377;87;20280;-89
2022/07/12 04:19:25;;;;;;;;;;;;;;;14.00;81.03;100716.84;1466456;86;20282;-88
2022/07/12 04:21:51;;;;;;;;;;;;;;;14.07;81.05;100718.37;1453386;87;20408;-89
2022/07/12 04:24:20;;;;;;;;;;;;;;;14.11;80.25;100721.03;1492366;86;20795;-89
2022/07/12 04:26:49;;;;;;;;;;;;;;;14.15;80.11;100721.53;1473589;86;20308;-89
2022/07/12 04:29:16;;;;;;;;;;;;;;;14.15;80.31;100723.69;1487978;87;20418;-89
2022/07/12 04:31:42;;;;;;;;;;;;;;;14.21;79.87;100720.40;1468357;87;20400;-89
2022/07/12 04:34:08;;;;;;;;;;;;;;;14.29;79.57;100722.72;1459000;88;20285;-78
2022/07/12 04:36:34;;;;;;;;;;;;;;;14.35;79.42;100728.21;1456613;88;20350;-78
2022/07/12 04:39:00;;;;;;;;;;;;;;;14.43;79.13;100722.90;1461018;89;20305;-78
2022/07/12 04:41:26;;;;;;;;;;;;;;;14.50;78.50;100717.77;1458767;87;21084;-78
2022/07/12 04:43:52;;;;;;;;;;;;;;;14.58;78.20;100723.09;1485985;86;20372;-78
2022/07/12 04:46:18;;;;;;;;;;;;;;;14.66;78.20;100722.27;1466016;87;20295;-78
2022/07/12 04:48:44;;;;;;;;;;;;;;;14.65;77.79;100722.78;1472731;86;20342;-78
2022/07/12 04:51:10;;;;;;;;;;;;;;;14.72;77.97;100720.27;1457809;87;20297;-78
2022/07/12 04:53:37;;;;;;;;;;;;;;;14.76;77.48;100719.42;1460066;87;20554;-78
2022/07/12 04:56:03;;;;;;;;;;;;;;;14.82;77.30;100708.13;1445659;89;20292;-77
2022/07/12 04:58:29;;;;;;;;;;;;;;;14.92;76.79;100710.59;1466275;87;20537;-78
2022/07/12 05:00:58;;;;;;;;;;;;;;;15.01;76.33;100712.24;1478630;87;20398;-78
2022/07/12 05:03:26;;;;;;;;;;;;;;;15.12;76.62;100710.56;1463305;87;20381;-78
2022/07/12 05:05:54;;;;;;;;;;;;;;;15.19;75.70;100713.36;1488818;87;20279;-78
2022/07/12 05:08:21;;;;;;;;;;;;;;;15.28;74.58;100713.19;1451326;87;20296;-77
2022/07/12 05:10:47;;;;;;;;;;;;;;;15.34;73.44;100710.34;1488781;87;20387;-78
2022/07/12 05:13:13;;;;;;;;;;;;;;;15.41;74.61;100708.63;1483486;87;20320;-78
2022/07/12 05:15:40;;;;;;;;;;;;;;;15.50;74.07;100713.44;1464588;87;20374;-78
2022/07/12 05:18:07;;;;;;;;;;;;;;;15.54;73.50;100713.44;1481603;87;20306;-77
2022/07/12 05:20:33;;;;;;;;;;;;;;;15.62;73.83;100713.38;1461910;88;20447;-80
2022/07/12 05:23:00;;;;;;;;;;;;;;;15.73;73.50;100719.70;1476952;87;20327;-80
2022/07/12 05:25:26;;;;;;;;;;;;;;;15.79;72.57;100720.36;1465531;87;20295;-80
2022/07/12 05:27:52;;;;;;;;;;;;;;;15.87;72.37;100723.98;1493939;87;20369;-80
2022/07/12 05:30:18;;;;;;;;;;;;;;;15.96;72.61;100725.08;1459804;87;20379;-80
2022/07/12 05:32:44;;;;;;;;;;;;;;;16.06;72.39;100730.22;1470417;87;20450;-80
2022/07/12 05:35:11;;;;;;;;;;;;;;;16.17;72.60;100735.64;1468926;87;20315;-81
2022/07/12 05:37:39;;;;;;;;;;;;;;;16.24;70.54;100730.76;1488351;86;20332;-82
2022/07/12 05:40:06;;;;;;;;;;;;;;;16.27;70.54;100727.41;1485320;87;20309;-82
2022/07/12 05:42:33;;;;;;;;;;;;;;;16.32;67.95;100720.53;1469344;87;20326;-82
2022/07/12 05:44:59;;;;;;;;;;;;;;;16.36;69.53;100723.67;1560303;87;20256;-82
2022/07/12 05:47:25;;;;;;;;;;;;;;;16.45;68.69;100725.27;1545142;89;20351;-82
2022/07/12 05:49:53;;;;;;;;;;;;;;;16.51;69.23;100725.88;1521764;87;21000;-82
2022/07/12 05:55:13;;;;;;;;;;;;;;;16.58;67.71;100728.69;1544632;89;20234;-82
2022/07/12 05:57:39;;;;;;;;;;;;;;;16.62;69.13;100722.79;1524466;87;20278;-82
2022/07/12 06:00:07;;;;;;;;;;;;;;;16.67;67.72;100726.27;1387800;89;20383;-82
2022/07/12 06:02:33;;;;;;;;;;;;;;;16.77;67.88;100722.86;1562173;87;20358;-82
2022/07/12 06:05:01;;;;;;;;;;;;;;;16.82;68.25;100720.98;1555308;87;20292;-82
2022/07/12 06:07:27;;;;;;;;;;;;;;;16.78;66.97;100723.20;1514936;87;20276;-81
2022/07/12 06:09:53;;;;;;;;;;;;;;;16.80;66.99;100724.34;1469353;87;20484;-80
2022/07/12 06:12:20;;;;;;;;;;;;;;;16.63;64.68;100724.95;1459776;88;21057;-80
2022/07/12 06:14:48;;;;;;;;;;;;;;;16.70;66.61;100722.73;1465409;87;20277;-81
2022/07/12 06:17:13;;;;;;;;;;;;;;;16.84;66.32;100722.47;1458392;89;20298;-82
2022/07/12 06:19:40;;;;;;;;;;;;;;;17.10;66.23;100719.89;1447622;87;20298;-83
2022/07/12 06:22:06;;;;;;;;;;;;;;;17.37;66.43;100721.91;1471477;87;20408;-84
2022/07/12 06:24:39;;;;;;;;;;;;;;;17.68;66.14;100717.38;1477624;87;20273;-84
2022/07/12 06:27:05;;;;;;;;;;;;;;;17.86;63.50;100719.16;1474757;87;20339;-84
2022/07/12 06:29:31;;;;;;;;;;;;;;;17.99;64.27;100727.36;1472081;87;20365;-84
2022/07/12 06:31:57;;;;;;;;;;;;;;;18.03;60.46;100717.09;1472334;88;20455;-84
2022/07/12 06:34:23;;;;;;;;;;;;;;;18.06;62.11;100729.27;1467622;87;20273;-84
2022/07/12 06:36:50;;;;;;;;;;;;;;;18.08;61.50;100726.73;1476063;87;20395;-84
2022/07/12 06:39:17;;;;;;;;;;;;;;;18.12;61.09;100728.52;1469351;87;20312;-84
2022/07/12 06:41:43;;;;;;;;;;;;;;;18.20;59.35;100729.22;1485353;87;20287;-83
2022/07/12 06:44:09;;;;;;;;;;;;;;;18.34;60.13;100725.35;1472197;87;20307;-83
2022/07/12 06:46:34;;;;;;;;;;;;;;;18.50;60.64;100719.74;1468091;88;20372;-84
2022/07/12 06:49:00;;;;;;;;;;;;;;;18.53;59.11;100719.36;1479319;87;20280;-84
2022/07/12 06:51:28;;;;;;;;;;;;;;;18.57;58.63;100721.13;1493160;87;20280;-83
2022/07/12 06:53:54;;;;;;;;;;;;;;;18.57;57.82;100717.11;1466118;87;20501;-84
2022/07/12 06:56:19;;;;;;;;;;;;;;;18.57;58.28;100721.95;1490202;87;20325;-84
2022/07/12 06:58:45;;;;;;;;;;;;;;;18.62;58.76;100718.71;1491322;87;20303;-84
2022/07/12 07:01:11;;;;;;;;;;;;;;;18.67;57.66;100714.91;1480523;86;20295;-84
2022/07/12 07:03:37;;;;;;;;;;;;;;;18.80;56.34;100714.23;1440002;88;20291;-84
2022/07/12 07:06:03;;;;;;;;;;;;;;;18.97;55.57;100718.80;1486433;87;20279;-84
2022/07/12 07:08:31;;;;;;;;;;;;;;;19.06;55.42;100709.06;1451870;89;20284;-84
2022/07/12 07:10:57;;;;;;;;;;;;;;;19.20;56.46;100713.18;1421559;87;20355;-84
2022/07/12 07:13:22;;;;;;;;;;;;;;;19.29;54.49;100719.52;1473069;87;21015;-84
2022/07/12 07:15:48;;;;;;;;;;;;;;;19.32;53.61;100720.98;1499955;87;20408;-83
2022/07/12 07:18:14;;;;;;;;;;;;;;;19.40;54.53;100719.48;1466024;87;20303;-84
2022/07/12 07:20:40;;;;;;;;;;;;;;;19.52;52.07;100723.77;1478739;86;20239;-84
2022/07/12 07:23:07;;;;;;;;;;;;;;;19.55;49.97;100719.34;1458175;87;20353;-83
2022/07/12 07:25:33;;;;;;;;;;;;;;;19.65;50.46;100725.22;1451762;89;20291;-84
2022/07/12 07:27:58;;;;;;;;;;;;;;;19.79;52.99;100715.34;1495243;87;20215;-83
2022/07/12 07:33:09;;;;;;;;;;;;;;;20.02;50.34;100727.09;1466391;87;20320;-83
2022/07/12 07:35:35;;;;;;;;;;;;;;;20.07;51.16;100731.34;1457852;89;20748;-84
2022/07/12 07:38:01;;;;;;;;;;;;;;;20.09;50.37;100729.81;1490015;87;20244;-84
2022/07/12 07:40:26;;;;;;;;;;;;;;;20.08;49.17;100729.48;1467021;87;20356;-84
2022/07/12 07:42:52;;;;;;;;;;;;;;;20.07;50.59;100728.66;1473312;87;20783;-84
2022/07/12 07:45:18;;;;;;;;;;;;;;;20.08;50.59;100728.14;1460145;87;20284;-84
2022/07/12 07:47:48;;;;;;;;;;;;;;;20.11;49.54;100721.02;1458808;89;20279;-84
2022/07/12 07:50:15;;;;;;;;;;;;;;;20.12;50.05;100727.54;1440398;89;20312;-83
2022/07/12 07:52:41;;;;;;;;;;;;;;;20.16;50.73;100726.09;1465782;87;20786;-84
2022/07/12 07:55:07;;;;;;;;;;;;;;;20.11;49.23;100727.23;1475987;87;20232;-84
2022/07/12 07:57:33;;;;;;;;;;;;;;;20.05;46.91;100729.37;1454561;89;20402;-83
2022/07/12 07:59:59;;;;;;;;;;;;;;;20.17;49.56;100729.11;1446777;89;20278;-82
2022/07/12 08:02:25;;;;;;;;;;;;;;;20.30;47.59;100732.33;1439137;90;20300;-83
2022/07/12 08:04:51;;;;;;;;;;;;;;;20.42;48.11;100732.03;1440432;89;20293;-82
2022/07/12 08:07:17;;;;;;;;;;;;;;;20.57;47.49;100731.04;1444346;90;20322;-82
2022/07/12 08:09:43;;;;;;;;;;;;;;;20.72;48.21;100729.81;1447640;90;20873;-84
2022/07/12 08:12:10;;;;;;;;;;;;;;;20.98;48.50;100728.67;1433882;90;20322;-85
2022/07/12 08:14:36;;;;;;;;;;;;;;;21.22;45.67;100722.62;1444212;90;20798;-84
2022/07/12 08:17:02;;;;;;;;;;;;;;;21.24;46.21;100725.94;1441604;90;20315;-84
2022/07/12 08:19:28;;;;;;;;;;;;;;;21.49;46.05;100723.91;1444308;90;20271;-84
2022/07/12 08:21:54;;;;;;;;;;;;;;;21.54;45.92;100733.02;1433323;90;20279;-84
2022/07/12 08:24:19;;;;;;;;;;;;;;;21.48;45.54;100726.31;1439147;90;20912;-84
2022/07/12 08:26:45;;;;;;;;;;;;;;;21.35;45.05;100735.23;1429753;90;20308;-84
2022/07/12 08:29:11;;;;;;;;;;;;;;;21.27;45.04;100732.23;1441201;90;20307;-84
2022/07/12 08:31:37;;;;;;;;;;;;;;;21.12;44.86;100733.83;1430012;91;20360;-84
2022/07/12 08:34:03;;;;;;;;;;;;;;;21.21;46.90;100736.30;1436388;90;20286;-84
2022/07/12 08:36:28;;;;;;;;;;;;;;;21.23;45.99;100736.38;1438269;90;20279;-84
2022/07/12 08:38:54;;;;;;;;;;;;;;;21.28;45.44;100737.10;1432073;90;20338;-84
2022/07/12 08:41:20;;;;;;;;;;;;;;;21.33;44.80;100737.30;1442928;90;20867;-84
2022/07/12 08:43:46;;;;;;;;;;;;;;;21.51;46.04;100734.78;1436205;90;20278;-84
2022/07/12 08:46:15;;;;;;;;;;;;;;;21.46;42.02;100731.89;1451643;90;20352;-84
2022/07/12 08:48:42;;;;;;;;;;;;;;;21.62;44.27;100730.09;1447989;90;20250;-84
2022/07/12 08:51:13;;;;;;;;;;;;;;;21.51;42.92;100732.09;1445151;90;21531;-84
2022/07/12 08:53:40;;;;;;;;;;;;;;;21.51;43.59;100724.02;1451005;90;20293;-84
2022/07/12 08:56:07;;;;;;;;;;;;;;;21.55;42.53;100725.27;1450266;90;20494;-84
2022/07/12 08:58:33;;;;;;;;;;;;;;;21.54;42.87;100727.63;1442902;88;20330;-83
2022/07/12 09:01:00;;;;;;;;;;;;;;;21.52;44.48;100725.69;1477473;86;20305;-84
2022/07/12 09:03:27;;;;;;;;;;;;;;;21.48;43.97;100733.05;1497593;86;20295;-85
2022/07/12 09:05:56;;;;;;;;;;;;;;;21.44;44.23;100727.27;1482905;86;20254;-85
2022/07/12 09:08:28;;;;;;;;;;;;;;;21.45;43.02;100726.73;1496291;86;20387;-85
2022/07/12 09:10:58;;;;;;;;;;;;;;;21.54;44.17;100731.67;1497357;86;20347;-84
2022/07/12 09:13:51;;;;;;;;;;;;;;;21.86;42.63;100738.48;1506921;86;20377;-85
2022/07/12 09:16:20;;;;;;;;;;;;;;;22.03;43.37;100734.25;1462897;86;20515;-84
2022/07/12 09:18:47;;;;;;;;;;;;;;;22.02;42.53;100740.69;1465671;86;20290;-85
2022/07/12 09:21:29;;;;;;;;;;;;;;;22.05;42.44;100738.91;1469548;86;20595;-84
2022/07/12 09:23:58;;;;;;;;;;;;;;;22.03;41.27;100745.03;1499773;86;20444;-84
2022/07/12 09:26:32;;;;;;;;;;;;;;;22.18;40.84;100747.98;1494086;86;21310;-84
2022/07/12 09:29:09;;;;;;;;;;;;;;;21.99;39.45;100746.52;1502817;86;20535;-84
2022/07/12 09:37:16;;;;;;;;;;;;;;;21.84;41.69;100758.09;1486564;86;20280;-84
2022/07/12 09:39:43;;;;;;;;;;;;;;;21.74;41.60;100757.19;1500061;86;20838;-84
2022/07/12 09:42:10;;;;;;;;;;;;;;;21.60;41.65;100757.74;1463825;86;20290;-84
2022/07/12 09:44:37;;;;;;;;;;;;;;;21.46;41.87;100755.30;1471375;88;20491;-84
2022/07/12 09:47:03;;;;;;;;;;;;;;;21.33;42.58;100748.89;1485850;86;20384;-84
2022/07/12 09:49:32;;;;;;;;;;;;;;;21.31;42.44;100755.52;1482192;86;20371;-84
2022/07/12 09:51:59;;;;;;;;;;;;;;;21.29;43.54;100751.70;1568317;86;20402;-84
2022/07/12 09:54:27;;;;;;;;;;;;;;;21.28;43.55;100746.00;1473807;88;20332;-85
2022/07/12 09:56:55;;;;;;;;;;;;;;;21.27;42.58;100743.01;1593714;86;20309;-84
2022/07/12 09:59:23;;;;;;;;;;;;;;;21.22;43.39;100748.19;1447942;86;20329;-84
2022/07/12 10:01:51;;;;;;;;;;;;;;;21.16;46.38;100749.85;1547982;87;20305;-85
2022/07/12 10:04:20;;;;;;;;;;;;;;;20.92;48.08;100748.64;1537601;86;20552;-84
2022/07/12 10:06:47;;;;;;;;;;;;;;;20.90;47.79;100742.64;1506401;86;20464;-84
2022/07/12 10:09:14;;;;;;;;;;;;;;;21.07;48.06;100745.73;1458480;88;20330;-85
2022/07/12 10:11:41;;;;;;;;;;;;;;;21.08;47.93;100737.95;1467838;88;20320;-84
2022/07/12 10:14:15;;;;;;;;;;;;;;;21.35;47.53;100731.20;1488621;86;20912;-84
2022/07/12 10:16:45;;;;;;;;;;;;;;;21.34;47.40;100730.34;1467027;86;20358;-84
2022/07/12 10:19:26;;;;;;;;;;;;;;;21.38;47.96;100724.89;1472374;86;20753;-84
2022/07/12 10:21:58;;;;;;;;;;;;;;;21.31;48.26;100728.08;1481256;86;20402;-84
2022/07/12 10:24:34;;;;;;;;;;;;;;;21.51;48.84;100725.36;1459580;86;20387;-84
2022/07/12 10:27:04;;;;;;;;;;;;;;;21.49;47.02;100721.22;1484675;86;20377;-84
2022/07/12 10:29:30;;;;;;;;;;;;;;;21.59;47.66;100723.78;1459842;86;20395;-84
2022/07/12 10:31:56;;;;;;;;;;;;;;;21.67;47.19;100713.83;1466751;86;20284;-85
2022/07/12 10:34:24;;;;;;;;;;;;;;;22.07;45.59;100720.66;1460736;86;20276;-85
2022/07/12 10:37:00;;;;;;;;;;;;;;;22.55;46.10;100712.58;1474008;86;20809;-84
2022/07/12 10:39:27;;;;;;;;;;;;;;;23.02;43.33;100705.45;1487287;86;20327;-84
2022/07/12 10:42:09;;;;;;;;;;;;;;;23.07;40.37;100706.95;1471537;88;20282;-84
2022/07/12 10:44:41;;;;;;;;;;;;;;;23.05;42.35;100715.30;1474627;88;20298;-84
2022/07/12 10:47:08;;;;;;;;;;;;;;;22.89;43.08;100709.91;1457009;89;20423;-85
2022/07/12 10:49:35;;;;;;;;;;;;;;;23.24;42.25;100709.91;1458174;89;20290;-85
2022/07/12 10:52:14;;;;;;;;;;;;;;;23.49;41.18;100713.89;1458570;89;20299;-85
2022/07/12 10:54:42;;;;;;;;;;;;;;;23.57;39.40;100709.01;1463528;89;20909;-84
2022/07/12 10:57:09;;;;;;;;;;;;;;;23.59;39.20;100712.31;1455916;88;20395;-84
2022/07/12 10:59:36;;;;;;;;;;;;;;;23.66;40.74;100706.81;1480273;87;20297;-84
2022/07/12 11:02:03;;;;;;;;;;;;;;;23.74;41.60;100704.38;1487027;87;21076;-84
2022/07/12 11:04:29;;;;;;;;;;;;;;;23.83;40.65;100709.76;1494407;86;21224;-84
2022/07/12 11:06:57;;;;;;;;;;;;;;;23.93;40.53;100705.14;1481278;86;20246;-84
2022/07/12 11:09:24;;;;;;;;;;;;;;;23.98;40.65;100703.94;1489170;86;20845;-84
2022/07/12 11:11:52;;;;;;;;;;;;;;;23.98;39.10;100698.00;1483822;86;20351;-84
2022/07/12 11:14:30;;;;;;;;;;;;;;;23.96;40.35;100689.81;1495942;86;20346;-85
2022/07/12 11:16:57;;;;;;;;;;;;;;;23.89;39.21;100693.16;1485526;86;20236;-84
2022/07/12 11:19:25;;;;;;;;;;;;;;;24.07;40.06;100688.50;1497585;87;20377;-85
2022/07/12 11:21:58;;;;;;;;;;;;;;;24.14;38.12;100683.02;1489938;87;20303;-85
2022/07/12 11:24:26;;;;;;;;;;;;;;;24.21;39.00;100683.72;1494338;87;20274;-84
2022/07/12 11:26:52;;;;;;;;;;;;;;;24.26;39.53;100683.86;1494928;86;20287;-85
2022/07/12 11:29:18;;;;;;;;;;;;;;;24.54;40.38;100670.22;1474779;86;20320;-85
2022/07/12 11:31:45;;;;;;;;;;;;;;;24.91;38.67;100669.45;1503784;86;20467;-85
2022/07/12 11:34:23;;;;;;;;;;;;;;;25.13;35.77;100666.97;1502451;86;20302;-86
2022/07/12 11:36:57;;;;;;;;;;;;;;;25.48;37.89;100667.45;1471010;86;20376;-85
2022/07/12 11:39:38;;;;;;;;;;;;;;;25.69;35.20;100663.23;1484672;86;21173;-86
2022/07/12 11:42:06;;;;;;;;;;;;;;;25.83;35.98;100665.98;1480560;86;20416;-85
2022/07/12 11:44:46;;;;;;;;;;;;;;;25.99;34.75;100665.73;1484830;86;20372;-84
2022/07/12 11:47:13;;;;;;;;;;;;;;;26.14;35.34;100671.95;1474636;88;20411;-84
2022/07/12 11:49:47;;;;;;;;;;;;;;;26.21;34.33;100673.14;1468255;88;20753;-85
2022/07/12 11:52:14;;;;;;;;;;;;;;;26.15;33.55;100667.34;1472970;89;20305;-86
2022/07/12 11:54:40;;;;;;;;;;;;;;;26.25;34.89;100667.54;1460117;88;20289;-86
2022/07/12 11:57:08;;;;;;;;;;;;;;;26.37;34.74;100662.84;1462104;88;20330;-83
2022/07/12 11:59:35;;;;;;;;;;;;;;;26.20;33.99;100662.02;1475545;88;20300;-87
2022/07/12 12:02:08;;;;;;;;;;;;;;;26.08;33.71;100662.91;1454498;88;20798;-85
2022/07/12 12:04:50;;;;;;;;;;;;;;;25.79;32.91;100655.31;1454651;89;20307;-86
2022/07/12 12:07:17;;;;;;;;;;;;;;;25.74;34.09;100666.59;1471460;88;20349;-85
2022/07/12 12:10:00;;;;;;;;;;;;;;;25.73;34.31;100658.17;1439027;90;20340;-92
2022/07/12 12:12:38;;;;;;;;;;;;;;;25.86;31.19;100651.11;1437956;89;20264;-91
2022/07/12 12:15:12;;;;;;;;;;;;;;;25.80;32.58;100652.88;1420176;91;20602;-91
2022/07/12 12:17:58;;;;;;;;;;;;;;;25.60;33.15;100653.85;1456556;90;20463;-91
2022/07/12 12:20:29;;;;;;;;;;;;;;;25.71;34.39;100653.52;1395724;92;20297;-91
2022/07/12 12:23:03;;;;;;;;;;;;;;;25.49;34.08;100654.20;1448138;88;20254;-91
2022/07/12 12:25:31;;;;;;;;;;;;;;;25.24;33.36;100653.15;1468026;88;20383;-91
2022/07/12 12:28:00;;;;;;;;;;;;;;;25.19;35.03;100657.92;1466690;88;20304;-91
2022/07/12 12:30:27;;;;;;;;;;;;;;;25.02;35.21;100656.98;1476131;88;20238;-91
2022/07/12 12:32:54;;;;;;;;;;;;;;;24.97;34.49;100652.29;1469277;88;20304;-90
2022/07/12 12:35:22;;;;;;;;;;;;;;;25.26;34.82;100649.69;1472760;88;20307;-91
2022/07/12 12:37:53;;;;;;;;;;;;;;;25.25;33.95;100644.48;1469918;88;20810;-91
2022/07/12 12:40:21;;;;;;;;;;;;;;;25.04;33.73;100638.62;1465440;88;20282;-91
2022/07/12 12:42:48;;;;;;;;;;;;;;;25.03;33.79;100638.84;1471132;88;20314;-92
2022/07/12 12:45:20;;;;;;;;;;;;;;;24.89;34.02;100636.94;1474363;88;20298;-92
2022/07/12 12:47:56;;;;;;;;;;;;;;;24.78;35.38;100637.77;1453916;90;20307;-92
2022/07/12 12:50:46;;;;;;;;;;;;;;;24.43;36.44;100640.77;1448113;89;20411;-91